sensor_id;sensor_type;location;lat;lon;timestamp;P1;durP1;ratioP1;P2;durP2;ratioP2
52031;SDS011;38044;45.148;39.604;2024-02-14T00:02:17;59.20;;;36.17;;
52031;SDS011;38044;45.148;39.604;2024-02-14T00:04:48;60.58;;;36.88;;
52031;SDS011;38044;45.148;39.604;2024-02-14T00:07:14;57.70;;;34.70;;
52031;SDS011;38044;45.148;39.604;2024-02-14T00:09:46;59.80;;;36.20;;
52031;SDS011;38044;45.148;39.604;2024-02-14T00:12:12;56.78;;;35.10;;
52031;SDS011;38044;45.148;39.604;2024-02-14T00:14:38;64.25;;;37.33;;
52031;SDS011;38044;45.148;39.604;2024-02-14T00:17:04;61.08;;;37.63;;
52031;SDS011;38044;45.148;39.604;2024-02-14T00:19:31;61.72;;;37.83;;
52031;SDS011;38044;45.148;39.604;2024-02-14T00:21:57;56.95;;;36.47;;
52031;SDS011;38044;45.148;39.604;2024-02-14T00:24:23;61.95;;;36.47;;
52031;SDS011;38044;45.148;39.604;2024-02-14T00:26:49;57.63;;;34.90;;
52031;SDS011;38044;45.148;39.604;2024-02-14T00:29:16;55.28;;;35.60;;
52031;SDS011;38044;45.148;39.604;2024-02-14T00:31:42;69.88;;;37.20;;
52031;SDS011;38044;45.148;39.604;2024-02-14T00:34:09;64.55;;;37.15;;
52031;SDS011;38044;45.148;39.604;2024-02-14T00:36:36;59.58;;;37.05;;
52031;SDS011;38044;45.148;39.604;2024-02-14T00:39:02;63.88;;;38.22;;
52031;SDS011;38044;45.148;39.604;2024-02-14T00:41:28;70.20;;;39.78;;
52031;SDS011;38044;45.148;39.604;2024-02-14T00:43:57;65.65;;;37.38;;
52031;SDS011;38044;45.148;39.604;2024-02-14T00:46:23;60.75;;;37.00;;
52031;SDS011;38044;45.148;39.604;2024-02-14T00:48:49;59.90;;;35.65;;
52031;SDS011;38044;45.148;39.604;2024-02-14T00:51:15;62.33;;;36.63;;
52031;SDS011;38044;45.148;39.604;2024-02-14T00:53:41;62.05;;;35.70;;
52031;SDS011;38044;45.148;39.604;2024-02-14T00:56:07;59.15;;;34.42;;
52031;SDS011;38044;45.148;39.604;2024-02-14T00:58:33;59.05;;;35.25;;
52031;SDS011;38044;45.148;39.604;2024-02-14T01:00:59;71.65;;;37.70;;
52031;SDS011;38044;45.148;39.604;2024-02-14T01:03:25;67.82;;;36.83;;
52031;SDS011;38044;45.148;39.604;2024-02-14T01:05:51;53.05;;;32.05;;
52031;SDS011;38044;45.148;39.604;2024-02-14T01:08:17;56.80;;;34.10;;
52031;SDS011;38044;45.148;39.604;2024-02-14T01:10:43;62.17;;;35.17;;
52031;SDS011;38044;45.148;39.604;2024-02-14T01:13:12;70.53;;;36.90;;
52031;SDS011;38044;45.148;39.604;2024-02-14T01:15:38;61.70;;;35.53;;
52031;SDS011;38044;45.148;39.604;2024-02-14T01:18:03;60.75;;;34.58;;
52031;SDS011;38044;45.148;39.604;2024-02-14T01:20:29;50.00;;;30.27;;
52031;SDS011;38044;45.148;39.604;2024-02-14T01:22:55;43.08;;;28.60;;
52031;SDS011;38044;45.148;39.604;2024-02-14T01:25:21;47.17;;;28.10;;
52031;SDS011;38044;45.148;39.604;2024-02-14T01:27:47;41.33;;;26.63;;
52031;SDS011;38044;45.148;39.604;2024-02-14T01:30:14;44.13;;;26.08;;
52031;SDS011;38044;45.148;39.604;2024-02-14T01:32:40;40.30;;;25.73;;
52031;SDS011;38044;45.148;39.604;2024-02-14T01:35:06;40.63;;;25.33;;
52031;SDS011;38044;45.148;39.604;2024-02-14T01:37:32;41.03;;;24.27;;
52031;SDS011;38044;45.148;39.604;2024-02-14T01:39:58;50.70;;;26.95;;
52031;SDS011;38044;45.148;39.604;2024-02-14T01:42:24;44.72;;;24.70;;
52031;SDS011;38044;45.148;39.604;2024-02-14T01:44:50;40.83;;;25.02;;
52031;SDS011;38044;45.148;39.604;2024-02-14T01:47:16;39.88;;;24.25;;
52031;SDS011;38044;45.148;39.604;2024-02-14T01:49:44;44.53;;;25.15;;
52031;SDS011;38044;45.148;39.604;2024-02-14T01:52:10;44.58;;;26.05;;
52031;SDS011;38044;45.148;39.604;2024-02-14T01:54:38;40.75;;;24.45;;
52031;SDS011;38044;45.148;39.604;2024-02-14T01:57:04;39.88;;;25.75;;
52031;SDS011;38044;45.148;39.604;2024-02-14T01:59:32;44.92;;;26.00;;
52031;SDS011;38044;45.148;39.604;2024-02-14T02:02:00;45.13;;;25.88;;
52031;SDS011;38044;45.148;39.604;2024-02-14T02:04:26;52.90;;;26.05;;
52031;SDS011;38044;45.148;39.604;2024-02-14T02:06:52;41.22;;;24.00;;
52031;SDS011;38044;45.148;39.604;2024-02-14T02:09:21;40.08;;;24.27;;
52031;SDS011;38044;45.148;39.604;2024-02-14T02:11:48;38.33;;;24.90;;
52031;SDS011;38044;45.148;39.604;2024-02-14T02:14:15;43.45;;;25.77;;
52031;SDS011;38044;45.148;39.604;2024-02-14T02:16:42;49.15;;;28.33;;
52031;SDS011;38044;45.148;39.604;2024-02-14T02:19:08;44.45;;;27.67;;
52031;SDS011;38044;45.148;39.604;2024-02-14T02:21:38;44.63;;;27.67;;
52031;SDS011;38044;45.148;39.604;2024-02-14T02:24:04;55.85;;;30.30;;
52031;SDS011;38044;45.148;39.604;2024-02-14T02:26:30;51.03;;;29.38;;
52031;SDS011;38044;45.148;39.604;2024-02-14T02:28:56;48.50;;;28.63;;
52031;SDS011;38044;45.148;39.604;2024-02-14T02:31:22;49.15;;;31.70;;
52031;SDS011;38044;45.148;39.604;2024-02-14T02:33:48;46.88;;;28.02;;
52031;SDS011;38044;45.148;39.604;2024-02-14T02:36:15;50.47;;;29.75;;
52031;SDS011;38044;45.148;39.604;2024-02-14T02:38:41;49.13;;;29.08;;
52031;SDS011;38044;45.148;39.604;2024-02-14T02:41:07;47.20;;;28.33;;
52031;SDS011;38044;45.148;39.604;2024-02-14T02:43:34;46.20;;;29.55;;
52031;SDS011;38044;45.148;39.604;2024-02-14T02:46:00;48.83;;;30.27;;
52031;SDS011;38044;45.148;39.604;2024-02-14T02:48:26;46.95;;;28.15;;
52031;SDS011;38044;45.148;39.604;2024-02-14T02:50:53;46.03;;;28.55;;
52031;SDS011;38044;45.148;39.604;2024-02-14T02:53:19;49.08;;;30.08;;
52031;SDS011;38044;45.148;39.604;2024-02-14T02:55:45;46.97;;;27.15;;
52031;SDS011;38044;45.148;39.604;2024-02-14T02:58:11;53.33;;;31.15;;
52031;SDS011;38044;45.148;39.604;2024-02-14T03:00:37;56.85;;;30.65;;
52031;SDS011;38044;45.148;39.604;2024-02-14T03:03:03;53.38;;;31.27;;
52031;SDS011;38044;45.148;39.604;2024-02-14T03:05:33;49.88;;;29.40;;
52031;SDS011;38044;45.148;39.604;2024-02-14T03:07:59;56.33;;;32.92;;
52031;SDS011;38044;45.148;39.604;2024-02-14T03:10:26;52.17;;;30.65;;
52031;SDS011;38044;45.148;39.604;2024-02-14T03:12:52;48.95;;;29.35;;
52031;SDS011;38044;45.148;39.604;2024-02-14T03:15:18;51.58;;;31.00;;
52031;SDS011;38044;45.148;39.604;2024-02-14T03:17:45;60.97;;;32.85;;
52031;SDS011;38044;45.148;39.604;2024-02-14T03:20:14;54.85;;;30.77;;
52031;SDS011;38044;45.148;39.604;2024-02-14T03:22:40;56.33;;;31.65;;
52031;SDS011;38044;45.148;39.604;2024-02-14T03:25:13;52.50;;;30.13;;
52031;SDS011;38044;45.148;39.604;2024-02-14T03:27:42;50.10;;;30.75;;
52031;SDS011;38044;45.148;39.604;2024-02-14T03:30:12;52.20;;;30.85;;
52031;SDS011;38044;45.148;39.604;2024-02-14T03:32:41;65.07;;;32.83;;
52031;SDS011;38044;45.148;39.604;2024-02-14T03:35:08;52.33;;;30.38;;
52031;SDS011;38044;45.148;39.604;2024-02-14T03:37:37;57.40;;;30.52;;
52031;SDS011;38044;45.148;39.604;2024-02-14T03:40:04;51.97;;;31.08;;
52031;SDS011;38044;45.148;39.604;2024-02-14T03:42:32;50.47;;;29.52;;
52031;SDS011;38044;45.148;39.604;2024-02-14T03:44:59;45.65;;;30.00;;
52031;SDS011;38044;45.148;39.604;2024-02-14T03:47:34;52.40;;;29.95;;
52031;SDS011;38044;45.148;39.604;2024-02-14T03:50:00;50.45;;;30.13;;
52031;SDS011;38044;45.148;39.604;2024-02-14T03:52:29;57.13;;;32.25;;
52031;SDS011;38044;45.148;39.604;2024-02-14T03:54:59;60.85;;;30.40;;
52031;SDS011;38044;45.148;39.604;2024-02-14T03:57:25;55.38;;;31.52;;
52031;SDS011;38044;45.148;39.604;2024-02-14T03:59:55;53.97;;;29.38;;
52031;SDS011;38044;45.148;39.604;2024-02-14T04:02:21;50.58;;;28.83;;
52031;SDS011;38044;45.148;39.604;2024-02-14T04:04:54;53.40;;;30.65;;
52031;SDS011;38044;45.148;39.604;2024-02-14T04:07:20;52.22;;;29.75;;
52031;SDS011;38044;45.148;39.604;2024-02-14T04:09:47;52.28;;;28.90;;
52031;SDS011;38044;45.148;39.604;2024-02-14T04:12:13;58.20;;;28.77;;
52031;SDS011;38044;45.148;39.604;2024-02-14T04:14:40;50.47;;;29.13;;
52031;SDS011;38044;45.148;39.604;2024-02-14T04:17:06;45.50;;;28.20;;
52031;SDS011;38044;45.148;39.604;2024-02-14T04:19:33;57.95;;;31.65;;
52031;SDS011;38044;45.148;39.604;2024-02-14T04:21:59;58.17;;;30.90;;
52031;SDS011;38044;45.148;39.604;2024-02-14T04:24:25;50.47;;;29.55;;
52031;SDS011;38044;45.148;39.604;2024-02-14T04:26:52;51.25;;;28.17;;
52031;SDS011;38044;45.148;39.604;2024-02-14T04:29:20;45.28;;;27.20;;
52031;SDS011;38044;45.148;39.604;2024-02-14T04:31:46;57.80;;;29.67;;
52031;SDS011;38044;45.148;39.604;2024-02-14T04:34:12;55.95;;;29.27;;
52031;SDS011;38044;45.148;39.604;2024-02-14T04:36:39;45.25;;;28.83;;
52031;SDS011;38044;45.148;39.604;2024-02-14T04:39:05;45.65;;;27.70;;
52031;SDS011;38044;45.148;39.604;2024-02-14T04:41:31;56.08;;;30.42;;
52031;SDS011;38044;45.148;39.604;2024-02-14T04:43:57;53.80;;;29.15;;
52031;SDS011;38044;45.148;39.604;2024-02-14T04:46:23;55.70;;;31.50;;
52031;SDS011;38044;45.148;39.604;2024-02-14T04:48:48;62.17;;;31.20;;
52031;SDS011;38044;45.148;39.604;2024-02-14T04:51:14;60.13;;;31.65;;
52031;SDS011;38044;45.148;39.604;2024-02-14T04:53:40;63.30;;;31.80;;
52031;SDS011;38044;45.148;39.604;2024-02-14T04:56:07;52.30;;;31.35;;
52031;SDS011;38044;45.148;39.604;2024-02-14T04:58:33;70.07;;;33.75;;
52031;SDS011;38044;45.148;39.604;2024-02-14T05:01:00;66.95;;;34.40;;
52031;SDS011;38044;45.148;39.604;2024-02-14T05:03:27;233.20;;;103.32;;
52031;SDS011;38044;45.148;39.604;2024-02-14T05:05:54;228.20;;;103.15;;
52031;SDS011;38044;45.148;39.604;2024-02-14T05:08:21;197.80;;;82.45;;
52031;SDS011;38044;45.148;39.604;2024-02-14T05:13:55;185.43;;;74.63;;
52031;SDS011;38044;45.148;39.604;2024-02-14T05:17:07;96.63;;;43.17;;
52031;SDS011;38044;45.148;39.604;2024-02-14T05:19:34;66.10;;;33.13;;
52031;SDS011;38044;45.148;39.604;2024-02-14T05:22:01;58.53;;;31.52;;
52031;SDS011;38044;45.148;39.604;2024-02-14T05:24:29;45.25;;;27.58;;
52031;SDS011;38044;45.148;39.604;2024-02-14T05:26:57;53.35;;;29.95;;
52031;SDS011;38044;45.148;39.604;2024-02-14T05:29:23;92.82;;;40.80;;
52031;SDS011;38044;45.148;39.604;2024-02-14T05:31:51;109.55;;;46.28;;
52031;SDS011;38044;45.148;39.604;2024-02-14T05:34:21;87.65;;;39.92;;
52031;SDS011;38044;45.148;39.604;2024-02-14T05:36:48;59.05;;;31.58;;
52031;SDS011;38044;45.148;39.604;2024-02-14T05:39:15;51.28;;;28.75;;
52031;SDS011;38044;45.148;39.604;2024-02-14T05:41:41;55.30;;;29.33;;
52031;SDS011;38044;45.148;39.604;2024-02-14T05:44:08;54.03;;;29.17;;
52031;SDS011;38044;45.148;39.604;2024-02-14T05:46:36;46.13;;;28.33;;
52031;SDS011;38044;45.148;39.604;2024-02-14T05:49:02;48.53;;;27.77;;
52031;SDS011;38044;45.148;39.604;2024-02-14T05:51:29;44.45;;;26.25;;
52031;SDS011;38044;45.148;39.604;2024-02-14T05:53:55;61.80;;;32.15;;
52031;SDS011;38044;45.148;39.604;2024-02-14T05:56:22;53.17;;;28.52;;
52031;SDS011;38044;45.148;39.604;2024-02-14T05:58:49;46.88;;;25.73;;
52031;SDS011;38044;45.148;39.604;2024-02-14T06:01:15;46.67;;;27.80;;
52031;SDS011;38044;45.148;39.604;2024-02-14T06:03:42;52.65;;;28.27;;
52031;SDS011;38044;45.148;39.604;2024-02-14T06:06:09;57.22;;;30.92;;
52031;SDS011;38044;45.148;39.604;2024-02-14T06:08:36;86.88;;;38.97;;
52031;SDS011;38044;45.148;39.604;2024-02-14T06:11:03;63.30;;;33.35;;
52031;SDS011;38044;45.148;39.604;2024-02-14T06:13:30;44.00;;;25.33;;
52031;SDS011;38044;45.148;39.604;2024-02-14T06:15:56;43.92;;;25.70;;
52031;SDS011;38044;45.148;39.604;2024-02-14T06:18:23;40.38;;;25.48;;
52031;SDS011;38044;45.148;39.604;2024-02-14T06:20:50;42.95;;;24.83;;
52031;SDS011;38044;45.148;39.604;2024-02-14T06:23:17;55.08;;;28.48;;
52031;SDS011;38044;45.148;39.604;2024-02-14T06:25:44;61.22;;;32.05;;
52031;SDS011;38044;45.148;39.604;2024-02-14T06:28:11;54.20;;;29.25;;
52031;SDS011;38044;45.148;39.604;2024-02-14T06:30:39;58.88;;;30.67;;
52031;SDS011;38044;45.148;39.604;2024-02-14T06:33:06;47.40;;;27.45;;
52031;SDS011;38044;45.148;39.604;2024-02-14T06:35:32;40.47;;;25.63;;
52031;SDS011;38044;45.148;39.604;2024-02-14T06:37:59;42.30;;;25.00;;
52031;SDS011;38044;45.148;39.604;2024-02-14T06:40:26;38.00;;;23.65;;
52031;SDS011;38044;45.148;39.604;2024-02-14T06:42:54;46.10;;;25.88;;
52031;SDS011;38044;45.148;39.604;2024-02-14T06:45:22;42.60;;;24.65;;
52031;SDS011;38044;45.148;39.604;2024-02-14T06:47:49;49.00;;;24.67;;
52031;SDS011;38044;45.148;39.604;2024-02-14T06:50:15;48.55;;;26.65;;
52031;SDS011;38044;45.148;39.604;2024-02-14T06:52:43;44.58;;;24.90;;
52031;SDS011;38044;45.148;39.604;2024-02-14T06:55:09;43.95;;;23.95;;
52031;SDS011;38044;45.148;39.604;2024-02-14T06:57:37;42.42;;;24.30;;
52031;SDS011;38044;45.148;39.604;2024-02-14T07:00:05;52.53;;;26.80;;
52031;SDS011;38044;45.148;39.604;2024-02-14T07:02:34;58.10;;;27.48;;
52031;SDS011;38044;45.148;39.604;2024-02-14T07:05:01;49.08;;;26.42;;
52031;SDS011;38044;45.148;39.604;2024-02-14T07:07:28;51.65;;;28.52;;
52031;SDS011;38044;45.148;39.604;2024-02-14T07:09:54;49.35;;;27.67;;
52031;SDS011;38044;45.148;39.604;2024-02-14T07:12:22;45.30;;;25.60;;
52031;SDS011;38044;45.148;39.604;2024-02-14T07:14:49;42.97;;;25.00;;
52031;SDS011;38044;45.148;39.604;2024-02-14T07:17:17;49.22;;;27.33;;
52031;SDS011;38044;45.148;39.604;2024-02-14T07:19:44;47.05;;;27.52;;
52031;SDS011;38044;45.148;39.604;2024-02-14T07:22:15;41.60;;;26.67;;
52031;SDS011;38044;45.148;39.604;2024-02-14T07:24:44;40.38;;;24.77;;
52031;SDS011;38044;45.148;39.604;2024-02-14T07:27:12;42.85;;;24.52;;
52031;SDS011;38044;45.148;39.604;2024-02-14T07:29:42;43.60;;;26.30;;
52031;SDS011;38044;45.148;39.604;2024-02-14T07:32:10;46.35;;;26.25;;
52031;SDS011;38044;45.148;39.604;2024-02-14T07:34:41;40.53;;;26.17;;
52031;SDS011;38044;45.148;39.604;2024-02-14T07:37:09;37.63;;;24.30;;
52031;SDS011;38044;45.148;39.604;2024-02-14T07:39:36;37.58;;;25.25;;
52031;SDS011;38044;45.148;39.604;2024-02-14T07:42:03;35.25;;;23.10;;
52031;SDS011;38044;45.148;39.604;2024-02-14T07:44:30;36.78;;;24.05;;
52031;SDS011;38044;45.148;39.604;2024-02-14T07:46:57;36.00;;;24.58;;
52031;SDS011;38044;45.148;39.604;2024-02-14T07:49:24;36.03;;;24.15;;
52031;SDS011;38044;45.148;39.604;2024-02-14T07:51:51;36.35;;;23.50;;
52031;SDS011;38044;45.148;39.604;2024-02-14T07:54:17;38.75;;;24.75;;
52031;SDS011;38044;45.148;39.604;2024-02-14T07:56:44;43.25;;;25.45;;
52031;SDS011;38044;45.148;39.604;2024-02-14T07:59:11;48.42;;;29.90;;
52031;SDS011;38044;45.148;39.604;2024-02-14T08:01:37;52.20;;;31.55;;
52031;SDS011;38044;45.148;39.604;2024-02-14T08:04:04;59.00;;;34.83;;
52031;SDS011;38044;45.148;39.604;2024-02-14T08:06:31;48.17;;;27.75;;
52031;SDS011;38044;45.148;39.604;2024-02-14T08:08:58;41.25;;;25.35;;
52031;SDS011;38044;45.148;39.604;2024-02-14T08:11:28;43.38;;;24.98;;
52031;SDS011;38044;45.148;39.604;2024-02-14T08:13:55;48.72;;;25.85;;
52031;SDS011;38044;45.148;39.604;2024-02-14T08:16:21;39.40;;;26.25;;
52031;SDS011;38044;45.148;39.604;2024-02-14T08:18:47;42.10;;;27.55;;
52031;SDS011;38044;45.148;39.604;2024-02-14T08:21:16;45.85;;;26.92;;
52031;SDS011;38044;45.148;39.604;2024-02-14T08:23:43;38.88;;;26.17;;
52031;SDS011;38044;45.148;39.604;2024-02-14T08:26:09;36.05;;;25.67;;
52031;SDS011;38044;45.148;39.604;2024-02-14T08:28:36;39.17;;;25.60;;
52031;SDS011;38044;45.148;39.604;2024-02-14T08:31:04;41.17;;;27.35;;
52031;SDS011;38044;45.148;39.604;2024-02-14T08:33:36;42.92;;;26.33;;
52031;SDS011;38044;45.148;39.604;2024-02-14T08:36:06;40.10;;;28.27;;
52031;SDS011;38044;45.148;39.604;2024-02-14T08:38:34;44.22;;;29.08;;
52031;SDS011;38044;45.148;39.604;2024-02-14T08:41:00;35.03;;;25.58;;
52031;SDS011;38044;45.148;39.604;2024-02-14T08:43:28;38.47;;;23.95;;
52031;SDS011;38044;45.148;39.604;2024-02-14T08:45:55;40.97;;;25.17;;
52031;SDS011;38044;45.148;39.604;2024-02-14T08:48:23;37.80;;;23.80;;
52031;SDS011;38044;45.148;39.604;2024-02-14T08:50:50;38.17;;;23.83;;
52031;SDS011;38044;45.148;39.604;2024-02-14T08:53:17;28.98;;;21.27;;
52031;SDS011;38044;45.148;39.604;2024-02-14T08:55:44;48.28;;;29.40;;
52031;SDS011;38044;45.148;39.604;2024-02-14T08:58:10;46.90;;;29.48;;
52031;SDS011;38044;45.148;39.604;2024-02-14T09:00:37;34.88;;;22.48;;
52031;SDS011;38044;45.148;39.604;2024-02-14T09:03:05;42.65;;;26.30;;
52031;SDS011;38044;45.148;39.604;2024-02-14T09:05:32;50.05;;;25.95;;
52031;SDS011;38044;45.148;39.604;2024-02-14T09:07:59;44.25;;;26.20;;
52031;SDS011;38044;45.148;39.604;2024-02-14T09:10:25;28.58;;;19.85;;
52031;SDS011;38044;45.148;39.604;2024-02-14T09:12:51;25.92;;;19.10;;
52031;SDS011;38044;45.148;39.604;2024-02-14T09:15:18;27.50;;;18.88;;
52031;SDS011;38044;45.148;39.604;2024-02-14T09:17:46;29.52;;;19.33;;
52031;SDS011;38044;45.148;39.604;2024-02-14T09:20:13;25.45;;;17.13;;
52031;SDS011;38044;45.148;39.604;2024-02-14T09:22:40;54.42;;;31.83;;
52031;SDS011;38044;45.148;39.604;2024-02-14T09:25:07;79.05;;;36.60;;
52031;SDS011;38044;45.148;39.604;2024-02-14T09:27:36;143.63;;;63.50;;
52031;SDS011;38044;45.148;39.604;2024-02-14T09:30:03;38.22;;;23.67;;
52031;SDS011;38044;45.148;39.604;2024-02-14T09:32:31;69.70;;;32.00;;
52031;SDS011;38044;45.148;39.604;2024-02-14T09:34:58;59.70;;;31.67;;
52031;SDS011;38044;45.148;39.604;2024-02-14T09:37:26;34.65;;;21.20;;
52031;SDS011;38044;45.148;39.604;2024-02-14T09:39:54;38.10;;;23.70;;
52031;SDS011;38044;45.148;39.604;2024-02-14T09:42:22;61.20;;;31.95;;
52031;SDS011;38044;45.148;39.604;2024-02-14T09:45:11;92.65;;;46.22;;
52031;SDS011;38044;45.148;39.604;2024-02-14T09:47:38;59.25;;;35.08;;
52031;SDS011;38044;45.148;39.604;2024-02-14T09:50:06;46.40;;;26.02;;
52031;SDS011;38044;45.148;39.604;2024-02-14T09:52:35;44.40;;;26.58;;
52031;SDS011;38044;45.148;39.604;2024-02-14T09:55:04;55.78;;;33.60;;
52031;SDS011;38044;45.148;39.604;2024-02-14T09:57:32;35.53;;;22.58;;
52031;SDS011;38044;45.148;39.604;2024-02-14T10:00:00;89.15;;;44.80;;
52031;SDS011;38044;45.148;39.604;2024-02-14T10:02:29;41.85;;;23.92;;
52031;SDS011;38044;45.148;39.604;2024-02-14T10:04:56;54.83;;;27.52;;
52031;SDS011;38044;45.148;39.604;2024-02-14T10:07:23;277.67;;;39.17;;
52031;SDS011;38044;45.148;39.604;2024-02-14T10:09:49;28.25;;;18.75;;
52031;SDS011;38044;45.148;39.604;2024-02-14T10:12:16;40.10;;;28.30;;
52031;SDS011;38044;45.148;39.604;2024-02-14T10:14:43;25.35;;;17.98;;
52031;SDS011;38044;45.148;39.604;2024-02-14T10:17:16;71.00;;;26.88;;
52031;SDS011;38044;45.148;39.604;2024-02-14T10:19:54;25.38;;;17.75;;
52031;SDS011;38044;45.148;39.604;2024-02-14T10:22:21;48.92;;;29.25;;
52031;SDS011;38044;45.148;39.604;2024-02-14T10:24:48;46.70;;;23.67;;
52031;SDS011;38044;45.148;39.604;2024-02-14T10:27:17;25.92;;;18.05;;
52031;SDS011;38044;45.148;39.604;2024-02-14T10:29:44;27.80;;;19.33;;
52031;SDS011;38044;45.148;39.604;2024-02-14T10:32:14;30.10;;;19.05;;
52031;SDS011;38044;45.148;39.604;2024-02-14T10:34:41;43.35;;;19.70;;
52031;SDS011;38044;45.148;39.604;2024-02-14T10:37:13;27.25;;;19.45;;
52031;SDS011;38044;45.148;39.604;2024-02-14T10:39:41;27.05;;;18.42;;
52031;SDS011;38044;45.148;39.604;2024-02-14T10:42:12;28.35;;;19.70;;
52031;SDS011;38044;45.148;39.604;2024-02-14T10:44:39;32.08;;;20.90;;
52031;SDS011;38044;45.148;39.604;2024-02-14T10:47:06;25.85;;;19.33;;
52031;SDS011;38044;45.148;39.604;2024-02-14T10:49:36;24.58;;;18.60;;
52031;SDS011;38044;45.148;39.604;2024-02-14T10:52:05;32.65;;;21.77;;
52031;SDS011;38044;45.148;39.604;2024-02-14T10:54:35;33.63;;;22.20;;
52031;SDS011;38044;45.148;39.604;2024-02-14T10:57:17;30.13;;;22.02;;
52031;SDS011;38044;45.148;39.604;2024-02-14T10:59:47;44.70;;;28.25;;
52031;SDS011;38044;45.148;39.604;2024-02-14T11:02:14;44.45;;;27.73;;
52031;SDS011;38044;45.148;39.604;2024-02-14T11:04:43;40.65;;;25.00;;
52031;SDS011;38044;45.148;39.604;2024-02-14T11:07:11;38.45;;;24.88;;
52031;SDS011;38044;45.148;39.604;2024-02-14T11:09:40;34.55;;;22.50;;
52031;SDS011;38044;45.148;39.604;2024-02-14T11:12:07;54.22;;;30.50;;
52031;SDS011;38044;45.148;39.604;2024-02-14T11:14:35;34.83;;;21.60;;
52031;SDS011;38044;45.148;39.604;2024-02-14T11:17:09;30.67;;;21.33;;
52031;SDS011;38044;45.148;39.604;2024-02-14T11:19:36;34.05;;;20.98;;
52031;SDS011;38044;45.148;39.604;2024-02-14T11:24:45;36.85;;;26.17;;
52031;SDS011;38044;45.148;39.604;2024-02-14T11:27:12;30.98;;;20.90;;
52031;SDS011;38044;45.148;39.604;2024-02-14T11:29:40;31.73;;;21.08;;
52031;SDS011;38044;45.148;39.604;2024-02-14T11:32:12;30.02;;;20.35;;
52031;SDS011;38044;45.148;39.604;2024-02-14T11:34:39;27.20;;;19.35;;
52031;SDS011;38044;45.148;39.604;2024-02-14T11:37:05;26.70;;;18.38;;
52031;SDS011;38044;45.148;39.604;2024-02-14T11:39:34;30.08;;;18.90;;
52031;SDS011;38044;45.148;39.604;2024-02-14T11:42:02;28.30;;;19.63;;
52031;SDS011;38044;45.148;39.604;2024-02-14T11:44:28;29.20;;;19.45;;
52031;SDS011;38044;45.148;39.604;2024-02-14T11:46:55;27.88;;;19.20;;
52031;SDS011;38044;45.148;39.604;2024-02-14T11:49:22;26.45;;;18.80;;
52031;SDS011;38044;45.148;39.604;2024-02-14T11:51:49;37.25;;;21.23;;
52031;SDS011;38044;45.148;39.604;2024-02-14T11:54:15;55.63;;;27.80;;
52031;SDS011;38044;45.148;39.604;2024-02-14T11:56:46;43.08;;;22.73;;
52031;SDS011;38044;45.148;39.604;2024-02-14T11:59:13;33.35;;;20.63;;
52031;SDS011;38044;45.148;39.604;2024-02-14T12:01:42;29.33;;;18.08;;
52031;SDS011;38044;45.148;39.604;2024-02-14T12:04:11;27.50;;;17.83;;
52031;SDS011;38044;45.148;39.604;2024-02-14T12:06:39;24.63;;;16.50;;
52031;SDS011;38044;45.148;39.604;2024-02-14T12:09:09;25.42;;;17.95;;
52031;SDS011;38044;45.148;39.604;2024-02-14T12:11:38;25.63;;;17.02;;
52031;SDS011;38044;45.148;39.604;2024-02-14T12:14:10;25.53;;;17.80;;
52031;SDS011;38044;45.148;39.604;2024-02-14T12:16:50;26.25;;;17.25;;
52031;SDS011;38044;45.148;39.604;2024-02-14T12:19:16;27.95;;;16.75;;
52031;SDS011;38044;45.148;39.604;2024-02-14T12:21:44;25.55;;;15.32;;
52031;SDS011;38044;45.148;39.604;2024-02-14T12:24:11;28.90;;;15.82;;
52031;SDS011;38044;45.148;39.604;2024-02-14T12:26:42;20.30;;;14.00;;
52031;SDS011;38044;45.148;39.604;2024-02-14T12:29:11;18.67;;;13.05;;
52031;SDS011;38044;45.148;39.604;2024-02-14T12:31:41;19.30;;;13.45;;
52031;SDS011;38044;45.148;39.604;2024-02-14T12:34:10;19.00;;;13.30;;
52031;SDS011;38044;45.148;39.604;2024-02-14T12:36:37;19.05;;;12.25;;
52031;SDS011;38044;45.148;39.604;2024-02-14T12:39:03;17.35;;;11.95;;
52031;SDS011;38044;45.148;39.604;2024-02-14T12:41:30;16.63;;;11.60;;
52031;SDS011;38044;45.148;39.604;2024-02-14T12:43:57;26.02;;;16.25;;
52031;SDS011;38044;45.148;39.604;2024-02-14T12:46:24;16.83;;;11.95;;
52031;SDS011;38044;45.148;39.604;2024-02-14T12:48:50;19.75;;;10.85;;
52031;SDS011;38044;45.148;39.604;2024-02-14T12:51:16;18.88;;;10.57;;
52031;SDS011;38044;45.148;39.604;2024-02-14T12:53:43;17.65;;;10.63;;
52031;SDS011;38044;45.148;39.604;2024-02-14T12:56:09;18.85;;;10.93;;
52031;SDS011;38044;45.148;39.604;2024-02-14T12:58:35;13.25;;;9.05;;
52031;SDS011;38044;45.148;39.604;2024-02-14T13:01:01;15.00;;;8.52;;
52031;SDS011;38044;45.148;39.604;2024-02-14T13:03:31;12.68;;;7.88;;
52031;SDS011;38044;45.148;39.604;2024-02-14T13:05:58;38.90;;;8.98;;
52031;SDS011;38044;45.148;39.604;2024-02-14T13:08:25;12.00;;;7.18;;
52031;SDS011;38044;45.148;39.604;2024-02-14T13:10:52;14.90;;;7.47;;
52031;SDS011;38044;45.148;39.604;2024-02-14T13:13:18;15.10;;;7.63;;
52031;SDS011;38044;45.148;39.604;2024-02-14T13:15:44;16.13;;;9.38;;
52031;SDS011;38044;45.148;39.604;2024-02-14T13:18:10;14.60;;;8.27;;
52031;SDS011;38044;45.148;39.604;2024-02-14T13:20:36;97.18;;;41.15;;
52031;SDS011;38044;45.148;39.604;2024-02-14T13:23:03;12.63;;;6.60;;
52031;SDS011;38044;45.148;39.604;2024-02-14T13:25:30;7.22;;;5.65;;
52031;SDS011;38044;45.148;39.604;2024-02-14T13:27:56;15.32;;;8.00;;
52031;SDS011;38044;45.148;39.604;2024-02-14T13:30:24;7.03;;;5.28;;
52031;SDS011;38044;45.148;39.604;2024-02-14T13:32:49;28.52;;;6.43;;
52031;SDS011;38044;45.148;39.604;2024-02-14T13:35:15;46.35;;;26.17;;
52031;SDS011;38044;45.148;39.604;2024-02-14T13:37:42;32.10;;;15.18;;
52031;SDS011;38044;45.148;39.604;2024-02-14T13:40:10;10.85;;;7.22;;
52031;SDS011;38044;45.148;39.604;2024-02-14T13:42:36;60.03;;;24.10;;
52031;SDS011;38044;45.148;39.604;2024-02-14T13:45:05;60.00;;;28.17;;
52031;SDS011;38044;45.148;39.604;2024-02-14T13:47:36;73.32;;;29.33;;
52031;SDS011;38044;45.148;39.604;2024-02-14T13:50:06;29.98;;;18.02;;
52031;SDS011;38044;45.148;39.604;2024-02-14T13:52:34;17.75;;;9.30;;
52031;SDS011;38044;45.148;39.604;2024-02-14T13:55:01;18.50;;;10.73;;
52031;SDS011;38044;45.148;39.604;2024-02-14T13:57:28;30.83;;;14.20;;
52031;SDS011;38044;45.148;39.604;2024-02-14T13:59:55;26.20;;;12.05;;
52031;SDS011;38044;45.148;39.604;2024-02-14T14:02:21;23.55;;;11.30;;
52031;SDS011;38044;45.148;39.604;2024-02-14T14:04:48;29.00;;;12.70;;
52031;SDS011;38044;45.148;39.604;2024-02-14T14:07:14;20.08;;;11.93;;
52031;SDS011;38044;45.148;39.604;2024-02-14T14:09:40;52.90;;;26.33;;
52031;SDS011;38044;45.148;39.604;2024-02-14T14:12:06;96.18;;;33.90;;
52031;SDS011;38044;45.148;39.604;2024-02-14T14:14:32;115.65;;;42.75;;
52031;SDS011;38044;45.148;39.604;2024-02-14T14:16:57;23.38;;;10.50;;